Time;durP1;ratioP1;P1;durP2;ratioP2;P2;SDS_P1;SDS_P2;PMS_P1;PMS_P2;Temp;Humidity;BMP_temperature;BMP_pressure;BME280_temperature;BME280_humidity;BME280_pressure;Samples;Min_cycle;Max_cycle;Signal;HPM_P1;HPM_P2
2023/10/06 00:01:11;;;;;;;10.65;5.82;;;;;;;18.26;95.26;101575.00;4823627;29;20122;-69
2023/10/06 00:03:44;;;;;;;10.30;6.05;;;;;;;18.32;94.88;101580.44;4823391;29;20410;-69
2023/10/06 00:06:21;;;;;;;11.35;6.30;;;;;;;18.31;95.69;101581.56;4823400;29;20057;-69
2023/10/06 00:08:51;;;;;;;9.07;5.90;;;;;;;18.31;94.58;101564.94;4823634;29;20046;-69
2023/10/06 00:11:32;;;;;;;8.25;5.80;;;;;;;18.22;95.29;101582.28;4823451;29;20055;-69
2023/10/06 00:14:18;;;;;;;9.80;5.53;;;;;;;18.24;96.56;101571.72;4823108;29;20487;-69
2023/10/06 00:16:49;;;;;;;8.82;5.57;;;;;;;18.21;96.29;101572.34;4823312;29;20055;-69
2023/10/06 00:19:26;;;;;;;12.18;5.93;;;;;;;18.10;97.67;101566.16;4823393;29;20486;-69
2023/10/06 00:22:08;;;;;;;9.70;5.95;;;;;;;18.09;96.64;101558.19;4823287;29;20088;-68
2023/10/06 00:24:37;;;;;;;9.45;6.25;;;;;;;18.05;96.78;101560.72;4822707;29;20066;-69
2023/10/06 00:27:10;;;;;;;11.00;6.25;;;;;;;18.04;96.92;101561.03;4823061;29;20047;-69
2023/10/06 00:29:54;;;;;;;10.60;6.68;;;;;;;18.00;98.23;101567.16;4806982;29;20058;-69
2023/10/06 00:32:24;;;;;;;13.73;7.07;;;;;;;17.96;100.00;101566.16;4823607;29;20042;-69
2023/10/06 00:35:08;;;;;;;11.70;6.70;;;;;;;17.90;98.64;101564.59;4826619;29;20046;-69
2023/10/06 00:37:38;;;;;;;13.68;6.80;;;;;;;17.93;98.91;101565.94;4810213;29;20058;-69
2023/10/06 00:40:19;;;;;;;11.05;6.43;;;;;;;17.97;99.75;101566.94;4810613;29;20069;-69
2023/10/06 00:42:51;;;;;;;10.73;7.35;;;;;;;17.90;100.00;101561.84;4826329;29;20494;-69
2023/10/06 00:45:22;;;;;;;12.80;6.63;;;;;;;17.86;100.00;101574.63;4826748;29;20058;-69
2023/10/06 00:47:53;;;;;;;13.02;7.13;;;;;;;17.85;100.00;101570.22;4825940;29;20062;-69
2023/10/06 00:50:24;;;;;;;10.60;6.63;;;;;;;17.73;100.00;101568.78;4810659;29;20043;-69
2023/10/06 00:52:55;;;;;;;11.30;6.53;;;;;;;17.63;100.00;101570.88;4810082;29;20053;-69
2023/10/06 00:55:25;;;;;;;11.73;6.72;;;;;;;17.62;100.00;101572.84;4810081;29;20054;-69
2023/10/06 00:57:53;;;;;;;12.32;7.13;;;;;;;17.60;100.00;101580.66;4824797;29;20365;-69
2023/10/06 01:00:22;;;;;;;10.13;7.10;;;;;;;17.63;100.00;101577.25;4810207;29;20038;-69
2023/10/06 01:02:50;;;;;;;14.82;7.32;;;;;;;17.65;100.00;101577.75;4825555;29;20073;-69
2023/10/06 01:05:21;;;;;;;12.20;6.88;;;;;;;17.62;100.00;101572.84;4825954;29;20055;-69
2023/10/06 01:07:49;;;;;;;12.32;6.10;;;;;;;17.57;100.00;101572.94;4809634;29;20401;-69
2023/10/06 01:10:34;;;;;;;12.35;7.00;;;;;;;17.51;100.00;101560.31;4826098;29;20058;-69
2023/10/06 01:13:12;;;;;;;;;;;;;;;17.45;100.00;101560.41;4826224;29;20406;-69
2023/10/06 01:15:49;;;;;;;10.48;6.70;;;;;;;17.45;100.00;101562.38;4826159;29;19940;-68
2023/10/06 01:18:23;;;;;;;10.00;7.05;;;;;;;17.45;100.00;101565.13;4825975;29;20054;-69
2023/10/06 01:20:53;;;;;;;16.45;6.75;;;;;;;17.42;100.00;101568.50;4795089;29;20405;-69
2023/10/06 01:23:21;;;;;;;11.55;7.00;;;;;;;17.37;100.00;101563.88;4824734;29;20074;-69
2023/10/06 01:25:53;;;;;;;14.15;7.78;;;;;;;17.38;100.00;101565.50;4825927;29;20050;-69
2023/10/06 01:28:23;;;;;;;12.82;7.32;;;;;;;17.39;100.00;101561.63;4825950;29;20483;-69
2023/10/06 01:30:51;;;;;;;14.23;7.50;;;;;;;17.29;100.00;101564.53;4809735;29;20039;-69
2023/10/06 01:33:19;;;;;;;12.35;7.40;;;;;;;17.25;100.00;101569.06;4825578;29;20061;-68
2023/10/06 01:35:47;;;;;;;13.90;8.07;;;;;;;17.17;100.00;101571.34;4825785;29;20069;-69
2023/10/06 01:38:24;;;;;;;15.02;8.20;;;;;;;17.11;100.00;101571.75;4825656;29;20046;-69
2023/10/06 01:40:53;;;;;;;14.30;8.07;;;;;;;17.11;100.00;101571.75;4809242;29;20055;-69
2023/10/06 01:43:29;;;;;;;17.10;8.57;;;;;;;17.05;100.00;101576.53;4808722;29;20058;-69
2023/10/06 01:45:59;;;;;;;13.95;8.15;;;;;;;17.16;100.00;101560.63;4808879;29;20050;-69
2023/10/06 01:48:31;;;;;;;15.65;8.70;;;;;;;17.02;100.00;101568.81;4825594;29;20454;-69
2023/10/06 01:50:59;;;;;;;16.80;8.85;;;;;;;16.98;100.00;101560.31;4825503;29;20053;-68
2023/10/06 01:53:32;;;;;;;15.55;9.13;;;;;;;17.03;100.00;101567.72;4825055;29;20050;-69
2023/10/06 01:56:04;;;;;;;14.32;9.05;;;;;;;16.98;100.00;101570.53;4825130;29;20050;-69
2023/10/06 01:58:32;;;;;;;13.48;8.35;;;;;;;17.03;100.00;101568.56;4809128;29;20039;-69
2023/10/06 02:01:00;;;;;;;16.02;8.85;;;;;;;16.99;100.00;101561.09;4794318;29;20054;-69
2023/10/06 02:03:28;;;;;;;14.65;9.30;;;;;;;16.97;100.00;101560.59;4808855;29;20042;-69
2023/10/06 02:05:59;;;;;;;15.38;9.82;;;;;;;16.96;100.00;101570.81;4825358;29;20418;-69
2023/10/06 02:08:28;;;;;;;16.98;8.60;;;;;;;16.87;100.00;101569.88;4824239;29;20561;-69
2023/10/06 02:10:56;;;;;;;15.52;9.23;;;;;;;16.88;100.00;101565.97;4809245;29;20394;-69
2023/10/06 02:13:24;;;;;;;17.33;9.80;;;;;;;16.90;100.00;101567.31;4808603;29;20053;-69
2023/10/06 02:16:03;;;;;;;16.00;8.45;;;;;;;16.87;100.00;101565.13;4809116;29;20411;-68
2023/10/06 02:18:37;;;;;;;14.35;9.35;;;;;;;16.80;100.00;101570.22;4824971;29;20059;-68
2023/10/06 02:21:09;;;;;;;16.08;9.63;;;;;;;16.72;100.00;101560.66;4824951;29;20049;-69
2023/10/06 02:23:41;;;;;;;17.98;10.15;;;;;;;16.77;100.00;101559.78;4824439;29;20047;-68
2023/10/06 02:26:12;;;;;;;19.63;9.82;;;;;;;16.82;100.00;101558.88;4808991;29;20054;-69
2023/10/06 02:28:48;;;;;;;18.15;10.02;;;;;;;16.76;100.00;101569.16;4808691;29;20047;-68
2023/10/06 02:31:23;;;;;;;18.48;10.35;;;;;;;16.73;100.00;101569.78;4808762;29;20055;-68
2023/10/06 02:33:51;;;;;;;15.60;9.77;;;;;;;16.77;100.00;101568.88;4824498;29;20058;-69
2023/10/06 02:36:22;;;;;;;20.25;10.38;;;;;;;16.80;100.00;101567.47;4824856;29;20054;-68
2023/10/06 02:38:51;;;;;;;18.15;10.48;;;;;;;16.71;100.00;101569.28;4824675;29;20077;-68
2023/10/06 02:41:23;;;;;;;18.50;10.13;;;;;;;16.69;100.00;101569.56;4824319;29;20062;-68
2023/10/06 02:43:52;;;;;;;20.48;10.38;;;;;;;16.69;100.00;101568.72;4824274;29;20054;-68
2023/10/06 02:46:21;;;;;;;18.55;10.27;;;;;;;16.68;100.00;101561.56;4824686;29;20063;-68
2023/10/06 02:48:50;;;;;;;16.95;10.50;;;;;;;16.58;100.00;101560.59;4824331;29;20046;-69
2023/10/06 02:52:15;;;;;;;19.80;10.52;;;;;;;16.66;100.00;101565.44;4808480;29;20050;-69
2023/10/06 02:54:21;;;;;;;16.63;10.13;;;;;;;16.66;100.00;101561.84;4811884;29;20066;-68
2023/10/06 02:56:50;;;;;;;17.50;9.68;;;;;;;16.58;100.00;101566.13;4808074;29;20057;-68
2023/10/06 02:59:21;;;;;;;20.25;10.80;;;;;;;16.55;100.00;101572.22;4834621;29;20046;-69
2023/10/06 03:01:52;;;;;;;18.95;10.35;;;;;;;16.54;100.00;101573.34;4808242;29;20053;-69
2023/10/06 03:04:26;;;;;;;16.80;10.00;;;;;;;16.63;100.00;101570.75;4815830;29;20079;-69
2023/10/06 03:06:58;;;;;;;17.60;9.80;;;;;;;16.70;100.00;101568.44;4790074;29;20058;-68
2023/10/06 03:09:43;;;;;;;19.95;10.82;;;;;;;16.60;100.00;101568.56;4804884;29;20126;-69
2023/10/06 03:12:33;;;;;;;21.20;11.30;;;;;;;16.46;100.00;101568.47;4804925;29;20051;-69
2023/10/06 03:15:01;;;;;;;21.13;10.60;;;;;;;16.39;100.00;101560.56;4818704;29;20062;-69
2023/10/06 03:17:30;;;;;;;22.38;10.82;;;;;;;16.32;100.00;101569.19;4807333;29;20054;-68
2023/10/06 03:20:18;;;;;;;18.88;10.55;;;;;;;16.34;100.00;101575.25;4823893;29;20054;-69
2023/10/06 03:22:48;;;;;;;18.05;10.55;;;;;;;16.39;100.00;101586.22;4807817;29;20352;-69
2023/10/06 03:25:17;;;;;;;21.17;10.07;;;;;;;16.38;100.00;101587.34;4805409;29;20046;-68
2023/10/06 03:27:54;;;;;;;20.73;11.32;;;;;;;16.30;100.00;101573.38;4791916;29;20057;-69
2023/10/06 03:30:34;;;;;;;18.67;10.30;;;;;;;16.24;100.00;101567.91;4791253;29;20050;-68
2023/10/06 03:33:11;;;;;;;21.35;11.10;;;;;;;16.23;100.00;101568.22;4809297;29;20050;-68
2023/10/06 03:35:45;;;;;;;18.30;11.40;;;;;;;16.25;100.00;101574.25;4820615;29;20061;-68
2023/10/06 03:43:13;;;;;;;18.35;11.70;;;;;;;16.21;100.00;101565.75;4808550;29;20062;-68
2023/10/06 03:45:45;;;;;;;19.45;11.38;;;;;;;16.13;100.00;101560.84;4802555;29;20062;-68
2023/10/06 03:48:14;;;;;;;19.52;11.80;;;;;;;16.12;100.00;101560.03;4804407;29;20054;-68
2023/10/06 03:50:44;;;;;;;20.38;11.20;;;;;;;16.08;100.00;101566.44;4804277;29;20380;-68
2023/10/06 03:53:14;;;;;;;21.08;10.77;;;;;;;16.08;100.00;101570.03;4805359;29;20047;-68
2023/10/06 03:55:45;;;;;;;19.70;11.65;;;;;;;16.44;100.00;101568.78;4804870;29;20055;-68
2023/10/06 03:58:16;;;;;;;21.20;11.65;;;;;;;16.51;100.00;101574.75;4804932;29;20069;-69
2023/10/06 04:00:47;;;;;;;19.33;12.07;;;;;;;16.38;100.00;101576.28;4805332;29;20050;-69
2023/10/06 04:03:17;;;;;;;19.15;10.52;;;;;;;16.28;100.00;101576.41;4805242;29;20514;-68
2023/10/06 04:05:50;;;;;;;19.73;11.23;;;;;;;16.25;100.00;101579.78;4805059;29;20515;-68
2023/10/06 04:08:23;;;;;;;21.05;11.45;;;;;;;16.27;100.00;101583.06;4804849;29;20062;-69
2023/10/06 04:10:54;;;;;;;21.05;10.93;;;;;;;16.34;100.00;101579.94;4805235;29;20046;-69
2023/10/06 04:13:23;;;;;;;20.23;11.68;;;;;;;16.25;100.00;101588.91;4805092;29;20055;-68
2023/10/06 04:15:54;;;;;;;22.90;11.77;;;;;;;16.20;100.00;101588.13;4804823;29;20530;-68
2023/10/06 04:18:23;;;;;;;21.25;12.05;;;;;;;16.08;100.00;101588.53;4804982;29;20407;-68
2023/10/06 04:20:53;;;;;;;23.38;12.27;;;;;;;16.02;100.00;101596.03;4805115;29;20051;-68
2023/10/06 04:23:23;;;;;;;23.08;12.07;;;;;;;15.98;100.00;101600.50;4805059;29;20499;-69
2023/10/06 04:25:55;;;;;;;20.88;11.82;;;;;;;16.08;100.00;101588.53;4803453;29;20050;-68
2023/10/06 04:28:25;;;;;;;20.05;11.45;;;;;;;16.06;100.00;101591.59;4805156;29;20411;-68
2023/10/06 04:30:54;;;;;;;20.90;12.00;;;;;;;16.01;100.00;101594.41;4803252;29;20063;-68
2023/10/06 04:33:25;;;;;;;19.90;11.25;;;;;;;15.95;100.00;101595.56;4805457;29;20055;-69
2023/10/06 04:36:11;;;;;;;23.05;11.90;;;;;;;15.92;100.00;101608.00;4817227;29;20065;-69
2023/10/06 04:38:40;;;;;;;22.38;11.20;;;;;;;15.90;100.00;101604.69;4823109;29;20051;-69
2023/10/06 04:41:09;;;;;;;22.83;12.07;;;;;;;16.05;100.00;101601.00;4808311;29;20380;-69
2023/10/06 04:43:48;;;;;;;24.02;11.77;;;;;;;15.95;100.00;101603.84;4826029;29;20071;-69
2023/10/06 04:46:16;;;;;;;23.10;12.43;;;;;;;15.89;100.00;101603.03;4806304;29;20054;-69
2023/10/06 04:48:44;;;;;;;22.85;12.43;;;;;;;15.93;100.00;101604.13;4804950;29;20503;-69
2023/10/06 04:51:13;;;;;;;22.83;12.00;;;;;;;15.92;100.00;101608.00;4820395;29;20047;-69
2023/10/06 04:53:45;;;;;;;23.10;11.95;;;;;;;15.89;100.00;101605.78;4788414;29;20054;-70
2023/10/06 04:56:14;;;;;;;24.00;11.75;;;;;;;16.03;100.00;101603.19;4814926;29;20532;-69
2023/10/06 04:58:42;;;;;;;24.25;13.60;;;;;;;16.11;100.00;101602.56;4822869;29;20062;-70
2023/10/06 05:01:11;;;;;;;26.15;11.65;;;;;;;16.32;100.00;101612.56;4806176;29;20399;-70
2023/10/06 05:03:45;;;;;;;21.80;11.02;;;;;;;16.20;100.00;101611.03;4823163;29;20070;-72
2023/10/06 05:06:16;;;;;;;23.63;12.35;;;;;;;16.15;100.00;101607.50;4839391;29;20054;-71
2023/10/06 05:08:49;;;;;;;22.02;12.48;;;;;;;16.31;100.00;101617.25;4821885;29;20050;-71
2023/10/06 05:11:20;;;;;;;;;;;;;;;16.24;100.00;101614.84;4823214;29;20057;-72
2023/10/06 05:13:52;;;;;;;19.27;11.85;;;;;;;16.17;100.00;101619.09;4829235;29;19928;-72
2023/10/06 05:16:22;;;;;;;22.70;11.93;;;;;;;16.09;100.00;101618.59;4806488;29;20592;-71
2023/10/06 05:18:53;;;;;;;21.70;11.38;;;;;;;16.09;100.00;101620.56;4823540;29;20066;-71
2023/10/06 05:21:21;;;;;;;21.63;11.73;;;;;;;16.29;100.00;101616.75;4825005;29;20069;-71
2023/10/06 05:23:49;;;;;;;21.73;11.90;;;;;;;16.24;100.00;101616.81;4807921;29;20062;-71
2023/10/06 05:26:20;;;;;;;24.20;11.52;;;;;;;16.31;100.00;101620.03;4813806;29;20054;-71
2023/10/06 05:28:50;;;;;;;23.33;11.68;;;;;;;16.37;100.00;101624.38;4825523;29;20046;-71
2023/10/06 05:31:22;;;;;;;28.33;12.02;;;;;;;16.41;100.00;101624.59;4827865;29;20070;-71
2023/10/06 05:33:51;;;;;;;27.75;12.00;;;;;;;16.45;100.00;101636.72;4819938;29;20054;-72
2023/10/06 05:36:19;;;;;;;28.27;12.27;;;;;;;16.50;100.00;101635.84;4824361;29;20050;-72
2023/10/06 05:38:49;;;;;;;29.98;14.80;;;;;;;16.55;100.00;101634.94;4825508;29;20050;-71
2023/10/06 05:41:17;;;;;;;28.50;13.07;;;;;;;16.60;100.00;101626.59;4825417;29;20055;-72
2023/10/06 05:43:46;;;;;;;29.23;13.05;;;;;;;16.88;100.00;101640.63;4824728;29;20062;-83
2023/10/06 05:46:14;;;;;;;29.33;13.48;;;;;;;17.16;100.00;101644.41;4791496;29;20051;-83
2023/10/06 05:48:44;;;;;;;25.95;12.95;;;;;;;17.46;100.00;101642.28;4791126;29;20059;-82
2023/10/06 05:51:18;;;;;;;25.67;13.27;;;;;;;17.57;100.00;101642.13;4776251;29;20066;-82
2023/10/06 05:53:48;;;;;;;27.05;14.00;;;;;;;17.83;100.00;101645.28;4793612;29;20055;-83
2023/10/06 05:56:19;;;;;;;23.65;12.30;;;;;;;18.03;100.00;101642.47;4778971;29;20069;-83
2023/10/06 05:58:48;;;;;;;25.40;12.98;;;;;;;18.09;100.00;101652.34;4794124;29;20050;-83
2023/10/06 06:01:20;;;;;;;25.00;13.77;;;;;;;18.05;100.00;101662.34;4778666;29;20538;-83
2023/10/06 06:03:51;;;;;;;26.60;13.93;;;;;;;18.01;100.00;101656.59;4794216;29;20065;-83
2023/10/06 06:06:24;;;;;;;26.02;13.40;;;;;;;17.94;100.00;101657.00;4790912;29;20404;-83
2023/10/06 06:08:52;;;;;;;23.88;12.82;;;;;;;18.11;100.00;101669.47;4776100;29;20051;-83
2023/10/06 06:11:20;;;;;;;27.02;14.85;;;;;;;18.07;100.00;101665.66;4793709;29;20069;-83
2023/10/06 06:13:49;;;;;;;26.30;14.02;;;;;;;18.06;100.00;101664.03;4794044;29;20144;-83
2023/10/06 06:16:34;;;;;;;29.95;15.23;;;;;;;18.17;100.00;101678.53;4790494;29;20062;-84
2023/10/06 06:19:05;;;;;;;28.42;15.27;;;;;;;18.18;100.00;101677.41;4775675;29;20062;-83
2023/10/06 06:21:34;;;;;;;28.65;14.95;;;;;;;18.36;100.00;101687.59;4779486;29;20057;-84
2023/10/06 06:24:06;;;;;;;31.85;16.20;;;;;;;18.53;100.00;101686.97;4793820;29;20047;-81
2023/10/06 06:26:38;;;;;;;33.95;16.75;;;;;;;18.59;100.00;101686.88;4792272;29;20495;-80
2023/10/06 06:29:09;;;;;;;35.83;18.63;;;;;;;18.52;100.00;101693.66;4793137;29;20059;-80
2023/10/06 06:31:38;;;;;;;38.80;18.42;;;;;;;18.62;100.00;101698.16;4789959;29;20047;-80
2023/10/06 06:34:06;;;;;;;34.80;17.30;;;;;;;18.52;100.00;101704.72;4777750;29;20062;-80
2023/10/06 06:36:35;;;;;;;35.97;18.30;;;;;;;18.50;100.00;101700.63;4765162;29;20058;-80
2023/10/06 06:39:04;;;;;;;34.05;16.73;;;;;;;18.50;100.00;101707.00;4778390;29;20062;-80
2023/10/06 06:41:33;;;;;;;28.30;15.55;;;;;;;18.65;100.00;101707.81;4793324;29;20495;-80
2023/10/06 06:44:01;;;;;;;29.77;15.43;;;;;;;18.74;100.00;101708.75;4789591;29;20070;-80
2023/10/06 06:46:29;;;;;;;28.55;14.00;;;;;;;18.82;100.00;101712.72;4781502;29;20402;-71
2023/10/06 06:48:59;;;;;;;30.23;14.93;;;;;;;18.71;100.00;101714.91;4793582;29;20046;-71
2023/10/06 06:51:28;;;;;;;30.65;14.98;;;;;;;18.45;100.00;101720.13;4793641;29;20051;-71
2023/10/06 06:53:57;;;;;;;25.20;13.85;;;;;;;18.48;100.00;101725.88;4790121;29;20055;-71
2023/10/06 06:56:28;;;;;;;24.95;13.88;;;;;;;18.61;100.00;101718.69;4765350;29;20502;-73
2023/10/06 06:59:01;;;;;;;27.80;14.10;;;;;;;18.66;100.00;101726.09;4793267;29;20054;-73
2023/10/06 07:01:29;;;;;;;26.92;13.63;;;;;;;18.74;100.00;101728.16;4793268;29;20074;-74
2023/10/06 07:04:00;;;;;;;27.80;12.35;;;;;;;18.82;100.00;101729.38;4774813;29;20066;-74
2023/10/06 07:06:30;;;;;;;21.60;12.52;;;;;;;18.92;100.00;101734.72;4765816;29;20050;-71
2023/10/06 07:08:59;;;;;;;25.88;13.68;;;;;;;18.77;100.00;101727.53;4792697;29;20054;-71
2023/10/06 07:11:28;;;;;;;24.10;13.55;;;;;;;18.90;100.00;101725.88;4824328;29;20055;-72
2023/10/06 07:13:56;;;;;;;23.10;12.93;;;;;;;19.11;100.00;101730.22;4824219;29;20077;-71
2023/10/06 07:16:24;;;;;;;24.33;12.32;;;;;;;19.24;99.03;101734.91;4824132;29;20376;-74
2023/10/06 07:18:55;;;;;;;23.73;12.50;;;;;;;19.25;99.14;101741.31;4824112;29;20494;-74
2023/10/06 07:21:23;;;;;;;22.38;12.02;;;;;;;19.38;97.91;101742.38;4824212;29;20061;-74
2023/10/06 07:23:52;;;;;;;22.45;11.95;;;;;;;19.44;98.41;101746.69;4824141;29;20050;-73
2023/10/06 07:26:22;;;;;;;25.73;11.68;;;;;;;19.54;97.25;101752.00;4824061;29;20050;-73
2023/10/06 07:28:54;;;;;;;26.30;13.02;;;;;;;19.55;97.26;101752.84;4824124;29;20054;-73
2023/10/06 07:31:24;;;;;;;23.60;11.98;;;;;;;19.65;96.76;101754.56;4824095;29;20061;-73
2023/10/06 07:33:54;;;;;;;20.95;11.52;;;;;;;19.75;96.29;101754.31;4823955;29;20046;-73
2023/10/06 07:36:22;;;;;;;26.08;12.15;;;;;;;19.77;97.51;101757.59;4823827;29;20046;-73
2023/10/06 07:38:50;;;;;;;21.23;11.95;;;;;;;19.91;95.31;101762.28;4807487;29;20042;-73
2023/10/06 07:41:25;;;;;;;23.75;11.80;;;;;;;19.95;95.44;101766.06;4807156;29;20065;-73
2023/10/06 07:43:53;;;;;;;27.42;10.93;;;;;;;20.04;93.27;101774.50;4823180;29;20050;-73
2023/10/06 07:46:21;;;;;;;22.70;11.95;;;;;;;20.20;93.39;101775.75;4823850;29;20050;-73
2023/10/06 07:48:50;;;;;;;21.77;11.52;;;;;;;20.31;93.19;101781.88;4823747;29;20398;-73
2023/10/06 07:51:19;;;;;;;20.38;11.88;;;;;;;20.34;94.98;101786.78;4823771;29;20375;-73
2023/10/06 07:53:48;;;;;;;18.63;11.43;;;;;;;20.39;94.13;101785.84;4823662;29;20042;-73
2023/10/06 07:56:18;;;;;;;21.83;11.32;;;;;;;20.42;94.43;101785.19;4823560;29;20058;-74
2023/10/06 07:58:47;;;;;;;24.27;10.98;;;;;;;20.50;93.61;101789.19;4823608;29;20070;-74
2023/10/06 08:01:19;;;;;;;20.80;11.60;;;;;;;20.48;95.54;101799.81;4807037;29;20050;-73
2023/10/06 08:03:47;;;;;;;22.20;11.07;;;;;;;20.58;94.98;101796.72;4823567;29;20050;-73
2023/10/06 08:06:15;;;;;;;23.73;11.88;;;;;;;20.59;90.87;101801.19;4823506;29;20058;-74
2023/10/06 08:08:43;;;;;;;21.80;12.55;;;;;;;20.69;91.29;101797.28;4823529;29;20074;-73
2023/10/06 08:11:13;;;;;;;22.35;10.90;;;;;;;20.79;90.31;101798.97;4807201;29;20055;-74
2023/10/06 08:13:42;;;;;;;21.02;11.52;;;;;;;20.86;88.69;101795.78;4823388;29;20062;-73
2023/10/06 08:16:12;;;;;;;18.67;11.57;;;;;;;20.96;87.00;101808.56;4806876;29;20057;-74
2023/10/06 08:18:40;;;;;;;20.45;10.90;;;;;;;21.06;89.76;101799.91;4823209;29;20049;-74
2023/10/06 08:21:10;;;;;;;18.17;11.30;;;;;;;21.17;87.26;101806.03;4806790;29;20411;-74
2023/10/06 08:23:38;;;;;;;23.27;11.60;;;;;;;21.20;87.04;101808.97;4823338;29;20059;-74
2023/10/06 08:26:11;;;;;;;18.75;10.63;;;;;;;21.29;86.68;101809.00;4806852;29;20507;-74
2023/10/06 08:28:40;;;;;;;19.38;10.63;;;;;;;21.37;85.52;101809.34;4823281;29;20058;-74
2023/10/06 08:31:15;;;;;;;15.57;8.63;;;;;;;21.44;82.66;101812.47;4806762;29;20054;-74
2023/10/06 08:33:45;;;;;;;17.55;9.48;;;;;;;21.50;81.63;101818.69;4823131;29;20050;-74
2023/10/06 08:36:13;;;;;;;17.67;9.93;;;;;;;21.51;79.44;101823.13;4823229;29;20498;-74
2023/10/06 08:38:41;;;;;;;21.98;10.52;;;;;;;21.55;81.65;101819.34;4823040;29;20398;-74
2023/10/06 08:41:10;;;;;;;22.63;10.93;;;;;;;21.63;82.20;101817.72;4806756;29;20054;-74
2023/10/06 08:43:40;;;;;;;20.67;10.40;;;;;;;21.73;81.08;101820.25;4822954;29;20429;-74
2023/10/06 08:46:13;;;;;;;16.52;9.85;;;;;;;21.88;79.45;101827.28;4823118;29;20050;-72
2023/10/06 08:48:44;;;;;;;20.58;10.00;;;;;;;21.91;79.30;101828.59;4823193;29;20062;-72
2023/10/06 08:51:14;;;;;;;19.08;10.32;;;;;;;22.09;77.12;101831.38;4823033;29;20057;-72
2023/10/06 08:53:46;;;;;;;20.42;11.45;;;;;;;22.11;76.97;101829.91;4824037;29;20050;-72
2023/10/06 08:56:15;;;;;;;19.38;10.82;;;;;;;22.20;78.99;101827.13;4826378;29;20105;-72
2023/10/06 08:58:44;;;;;;;13.05;8.77;;;;;;;22.28;77.68;101840.22;4826272;29;20053;-72
2023/10/06 09:01:13;;;;;;;21.70;12.02;;;;;;;22.38;77.25;101835.47;4809922;29;20054;-72
2023/10/06 09:03:41;;;;;;;21.38;11.10;;;;;;;22.40;75.98;101830.38;4826327;29;20053;-72
2023/10/06 09:06:11;;;;;;;27.70;11.70;;;;;;;22.49;74.96;101831.16;4826230;29;20046;-72
2023/10/06 09:08:42;;;;;;;19.60;9.38;;;;;;;22.72;75.77;101835.75;4826226;29;20125;-72
2023/10/06 09:11:10;;;;;;;16.50;8.98;;;;;;;22.82;73.73;101830.59;4826125;29;20050;-71
2023/10/06 09:13:41;;;;;;;18.27;8.65;;;;;;;22.81;71.88;101837.34;4826087;29;20430;-72
2023/10/06 09:16:11;;;;;;;13.52;7.88;;;;;;;22.86;72.51;101836.34;4809733;29;20061;-72
2023/10/06 09:18:40;;;;;;;16.38;8.27;;;;;;;22.93;71.46;101842.19;4825930;29;20051;-72
2023/10/06 09:21:28;;;;;;;12.15;6.60;;;;;;;22.95;70.11;101839.09;4825991;29;20046;-72
2023/10/06 09:24:15;;;;;;;11.57;6.35;;;;;;;22.93;67.47;101838.63;4825905;29;20054;-72
2023/10/06 09:26:42;;;;;;;8.98;6.30;;;;;;;23.09;69.19;101842.50;4809764;29;20494;-72
2023/10/06 09:29:11;;;;;;;9.63;6.00;;;;;;;23.17;67.19;101831.59;4825922;29;20058;-72
2023/10/06 09:31:44;;;;;;;7.57;5.22;;;;;;;23.41;63.23;101832.97;4807901;29;20046;-72
2023/10/06 09:34:23;;;;;;;12.80;6.15;;;;;;;23.25;63.43;101829.94;4823875;29;20050;-72
2023/10/06 09:36:52;;;;;;;10.32;5.70;;;;;;;23.35;65.28;101824.78;4825610;29;20046;-72
2023/10/06 09:39:32;;;;;;;8.95;5.45;;;;;;;23.57;64.78;101820.06;4825863;29;20050;-72
2023/10/06 09:42:01;;;;;;;9.20;5.85;;;;;;;23.66;62.65;101830.34;4825100;29;20074;-71
2023/10/06 09:44:30;;;;;;;9.85;5.90;;;;;;;23.76;63.65;101818.78;4843999;29;20046;-72
2023/10/06 09:47:00;;;;;;;8.63;4.60;;;;;;;23.89;61.39;101823.25;4827511;29;20050;-72
2023/10/06 09:49:31;;;;;;;7.93;5.00;;;;;;;23.88;60.95;101821.63;4843976;29;20418;-72
2023/10/06 09:52:03;;;;;;;11.60;5.57;;;;;;;23.89;61.07;101816.84;4843850;29;20053;-72
2023/10/06 09:54:31;;;;;;;6.78;4.85;;;;;;;23.85;60.20;101821.50;4843923;29;20498;-72
2023/10/06 09:57:03;;;;;;;8.95;4.63;;;;;;;23.88;58.65;101815.22;4831290;29;20050;-72
2023/10/06 09:59:32;;;;;;;8.55;5.25;;;;;;;23.91;60.65;101810.91;4825438;29;20050;-72
2023/10/06 10:02:03;;;;;;;12.60;5.95;;;;;;;24.02;62.39;101809.34;4824566;29;20043;-72
2023/10/06 10:04:34;;;;;;;7.93;5.13;;;;;;;24.00;62.13;101815.25;4830810;29;20076;-72
2023/10/06 10:07:03;;;;;;;8.05;5.45;;;;;;;24.08;61.47;101804.38;4843219;29;20042;-72
2023/10/06 10:09:34;;;;;;;8.73;5.30;;;;;;;24.34;61.46;101806.91;4827220;29;20041;-72
2023/10/06 10:12:24;;;;;;;6.15;4.95;;;;;;;24.32;60.77;101812.03;4835174;29;20053;-72
2023/10/06 10:14:59;;;;;;;7.85;4.90;;;;;;;24.39;59.40;101806.69;4829295;29;20057;-72
2023/10/06 10:17:48;;;;;;;8.30;5.32;;;;;;;24.32;58.79;101800.84;4824038;29;20051;-72
2023/10/06 10:20:17;;;;;;;8.80;4.47;;;;;;;24.38;59.80;101795.84;4797593;29;20503;-72
2023/10/06 10:22:45;;;;;;;9.27;5.10;;;;;;;24.53;60.06;101785.97;4808597;29;20073;-72
2023/10/06 10:25:13;;;;;;;12.68;5.65;;;;;;;24.67;59.04;101780.03;4824461;29;20046;-72
2023/10/06 10:27:44;;;;;;;11.93;5.38;;;;;;;24.92;59.43;101786.50;4809052;29;20053;-72
2023/10/06 10:30:15;;;;;;;8.48;5.65;;;;;;;25.01;58.54;101782.75;4824978;29;20061;-72
2023/10/06 10:32:52;;;;;;;9.52;5.18;;;;;;;25.03;58.69;101786.03;4808285;29;20061;-72
2023/10/06 10:35:20;;;;;;;10.55;5.45;;;;;;;24.94;57.71;101789.75;4824673;29;20061;-72
2023/10/06 10:37:57;;;;;;;9.85;5.88;;;;;;;24.83;58.04;101786.63;4808927;29;20050;-72
2023/10/06 10:40:31;;;;;;;8.57;5.43;;;;;;;24.97;58.44;101774.25;4824823;29;20671;-72
2023/10/06 10:43:05;;;;;;;8.88;5.60;;;;;;;24.93;58.23;101774.13;4823938;29;20501;-72
2023/10/06 10:45:44;;;;;;;8.70;5.53;;;;;;;25.09;58.24;101774.22;4806381;29;20070;-72
2023/10/06 10:48:14;;;;;;;9.25;6.15;;;;;;;25.26;57.53;101772.34;4806046;29;20058;-72
2023/10/06 10:50:59;;;;;;;9.43;5.00;;;;;;;25.17;55.95;101772.47;4815605;29;20055;-72
2023/10/06 10:53:30;;;;;;;7.45;5.47;;;;;;;25.22;57.58;101763.84;4824829;29;20421;-72
2023/10/06 10:56:01;;;;;;;8.15;4.97;;;;;;;25.56;56.11;101757.28;4841660;29;20053;-72
2023/10/06 10:58:44;;;;;;;7.75;5.45;;;;;;;25.53;55.80;101757.94;4805428;29;20059;-72
2023/10/06 11:01:31;;;;;;;7.70;4.40;;;;;;;25.47;53.66;101752.56;4809718;29;20054;-72
2023/10/06 11:04:12;;;;;;;6.22;4.65;;;;;;;25.46;54.74;101748.16;4824441;29;20046;-72
2023/10/06 11:06:43;;;;;;;7.60;4.47;;;;;;;25.53;53.92;101750.38;4824204;29;20375;-72
2023/10/06 11:09:30;;;;;;;5.60;4.40;;;;;;;25.45;53.83;101748.50;4823176;29;20069;-72
2023/10/06 11:12:01;;;;;;;6.65;4.07;;;;;;;25.54;53.29;101735.19;4824467;29;20062;-72
2023/10/06 11:14:40;;;;;;;8.13;4.75;;;;;;;25.53;53.01;101744.78;4823815;29;20054;-72
2023/10/06 11:17:11;;;;;;;5.97;4.30;;;;;;;25.57;53.02;101733.69;4822904;29;20497;-72
2023/10/06 11:19:40;;;;;;;7.95;4.22;;;;;;;25.84;51.96;101746.06;4824039;29;20405;-72
2023/10/06 11:22:11;;;;;;;7.10;3.67;;;;;;;25.80;51.08;101731.13;4824286;29;20057;-72
2023/10/06 11:24:44;;;;;;;8.43;3.72;;;;;;;25.84;50.90;101736.81;4833792;29;20066;-72
2023/10/06 11:27:16;;;;;;;6.20;4.00;;;;;;;25.87;49.07;101736.94;4830563;29;20062;-72
2023/10/06 11:29:45;;;;;;;5.18;3.50;;;;;;;25.79;49.74;101725.88;4824358;29;20046;-72
2023/10/06 11:32:13;;;;;;;5.25;3.40;;;;;;;25.82;50.15;101725.16;4840622;29;20057;-71
2023/10/06 11:34:43;;;;;;;6.88;3.65;;;;;;;25.80;50.28;101730.31;4819948;29;20050;-72